createdAt,value
2022-11-01T17:39:12.019Z,22.42
2022-11-01T17:49:59.055Z,19.09
2022-11-01T17:52:25.585Z,17.45
2022-11-01T17:54:52.024Z,16.63
2022-11-01T17:57:18.494Z,15.91
2022-11-01T17:59:44.934Z,15.25
2022-11-01T18:02:11.592Z,14.71
2022-11-01T18:04:38.456Z,14.21
2022-11-01T18:07:06.483Z,13.52
2022-11-01T18:09:34.217Z,13.15
2022-11-01T18:12:09.792Z,12.93
2022-11-01T18:14:55.283Z,12.82
2022-11-01T18:17:46.741Z,12.57
2022-11-01T18:20:21.325Z,12.32
2022-11-01T18:22:55.734Z,11.92
2022-11-01T18:25:42.288Z,11.76
2022-11-01T18:28:22.983Z,11.76
2022-11-01T18:30:55.991Z,11.63
2022-11-01T18:33:35.047Z,11.45
2022-11-01T18:36:20.120Z,11.44
2022-11-01T18:38:51.829Z,11.33
2022-11-01T18:41:22.333Z,11.03
2022-11-01T18:43:52.146Z,11.16
2022-11-01T18:46:25.569Z,10.98
2022-11-01T18:49:00.564Z,10.99
2022-11-01T18:51:33.158Z,10.96
2022-11-01T18:54:08.685Z,10.89
2022-11-01T18:56:38.333Z,10.85
2022-11-01T18:59:16.452Z,10.57
2022-11-01T19:01:43.886Z,10.66
2022-11-01T19:04:24.907Z,10.77
2022-11-01T19:06:56.573Z,10.62
2022-11-01T19:09:25.440Z,10.68
2022-11-01T19:12:02.829Z,10.80
2022-11-01T19:14:32.192Z,10.77
2022-11-01T19:16:59.040Z,10.69
2022-11-01T19:19:25.757Z,10.68
2022-11-01T19:21:58.745Z,10.54
2022-11-01T19:24:39.806Z,10.47
2022-11-01T19:27:20.139Z,10.51
2022-11-01T19:29:47.011Z,9.74
2022-11-01T19:32:16.323Z,9.77
2022-11-01T19:34:43.067Z,9.56
2022-11-01T19:37:33.072Z,9.44
2022-11-01T19:40:06.703Z,9.30
2022-11-01T19:42:33.933Z,9.24
2022-11-01T19:45:25.068Z,9.22
2022-11-01T19:47:51.693Z,9.22
2022-11-01T19:50:39.797Z,9.18
2022-11-01T19:53:34.005Z,9.13
2022-11-01T19:56:03.189Z,8.91
2022-11-01T19:58:42.834Z,8.90
2022-11-01T20:01:25.541Z,8.91
2022-11-01T20:03:55.367Z,8.82
2022-11-01T20:06:30.852Z,8.84
2022-11-01T20:09:04.242Z,8.62
2022-11-01T20:11:32.541Z,8.79
2022-11-01T20:13:59.406Z,8.77
2022-11-01T20:16:26.041Z,8.77
2022-11-01T20:18:52.765Z,8.73
2022-11-01T20:21:19.314Z,8.69
2022-11-01T20:23:45.799Z,8.64
2022-11-01T20:26:12.311Z,8.36
2022-11-01T20:28:38.885Z,8.62
2022-11-01T20:31:05.560Z,8.53
2022-11-01T20:33:32.298Z,8.60
2022-11-01T20:35:58.811Z,8.59
2022-11-01T20:38:25.397Z,8.61
2022-11-01T20:40:52.210Z,8.56
2022-11-01T20:43:18.672Z,8.61
2022-11-01T20:45:45.106Z,8.55
2022-11-01T20:48:11.777Z,8.56
2022-11-01T20:50:38.632Z,8.61
2022-11-01T20:53:06.432Z,8.56
2022-11-01T20:55:33.848Z,8.60
2022-11-01T20:58:00.492Z,8.58
2022-11-01T21:00:27.456Z,8.53
2022-11-01T21:02:57.745Z,8.57
2022-11-01T21:05:29.172Z,8.48
2022-11-01T21:08:11.926Z,8.48
2022-11-01T21:10:40.314Z,8.50
2022-11-01T21:13:32.392Z,8.51
2022-11-01T21:16:00.978Z,8.51
2022-11-01T21:18:44.384Z,8.48
2022-11-01T21:21:13.894Z,8.48
2022-11-01T21:23:41.740Z,8.46
2022-11-01T21:26:17.428Z,8.39
2022-11-01T21:28:49.004Z,8.40
2022-11-01T21:31:15.395Z,8.40
2022-11-01T21:33:56.507Z,8.35
2022-11-01T21:36:22.946Z,8.36
2022-11-01T21:38:53.135Z,8.21
2022-11-01T21:41:39.361Z,8.15
2022-11-01T21:44:23.414Z,8.30
2022-11-01T21:47:00.846Z,8.22
2022-11-01T21:49:29.954Z,8.17
2022-11-01T21:52:00.247Z,8.23
2022-11-01T21:54:29.053Z,8.06
2022-11-01T21:56:56.851Z,8.20
2022-11-01T21:59:24.236Z,8.18
2022-11-01T22:01:50.850Z,8.13
2022-11-01T22:04:17.556Z,7.97
2022-11-01T22:06:44.809Z,8.15
2022-11-01T22:09:11.999Z,7.93
2022-11-01T22:11:38.489Z,7.95
2022-11-01T22:14:05.949Z,8.08
2022-11-01T22:16:33.114Z,8.13
2022-11-01T22:18:59.904Z,8.01
2022-11-01T22:21:26.505Z,8.14
2022-11-01T22:23:53.122Z,8.07
2022-11-01T22:26:19.708Z,8.17
2022-11-01T22:28:47.471Z,8.17
2022-11-01T22:31:14.068Z,8.18
2022-11-01T22:33:40.594Z,8.08
2022-11-01T22:36:10.634Z,8.12
2022-11-01T22:38:38.409Z,8.30
2022-11-01T22:41:16.701Z,8.21
2022-11-01T22:43:46.309Z,8.39
2022-11-01T22:46:19.978Z,8.46
2022-11-01T22:48:47.895Z,8.47
2022-11-01T22:51:34.700Z,8.48
2022-11-01T22:54:01.288Z,8.64
2022-11-01T22:56:28.587Z,8.66
2022-11-01T22:58:55.391Z,8.67
2022-11-01T23:01:27.699Z,8.65
2022-11-01T23:03:59.120Z,8.56
2022-11-01T23:06:31.334Z,8.71
2022-11-01T23:09:01.261Z,8.57
2022-11-01T23:11:48.089Z,8.66
2022-11-01T23:14:38.072Z,8.75
2022-11-01T23:17:32.132Z,8.74
2022-11-01T23:20:01.379Z,8.73
2022-11-01T23:22:36.110Z,8.76
2022-11-01T23:25:03.954Z,8.64
2022-11-01T23:27:30.532Z,8.90
2022-11-01T23:30:00.816Z,8.95
2022-11-01T23:32:28.332Z,8.98
2022-11-01T23:35:06.541Z,8.93
2022-11-01T23:37:33.015Z,8.92
2022-11-01T23:39:59.827Z,8.78
2022-11-01T23:42:26.530Z,8.95
2022-11-01T23:44:55.812Z,8.86
2022-11-01T23:47:38.160Z,9.06
2022-11-01T23:50:12.731Z,9.03
2022-11-01T23:52:45.725Z,8.99
2022-11-01T23:55:22.998Z,9.05
2022-11-01T23:57:53.333Z,9.05
